Latest Weather Observations for ACT PCS3

IDN60801

Issued at 2:12 pm EST Saturday 20 July 2024 (issued every 10 minutes, with the page automatically refreshed every 10 minutes)

About weather observations | Map of weather stations | Latest weather observations for NSW | Other Formats
Station Details ID: 250146 Name: AFSG (PCS3) Lat: -35.39 Lon: 148.90 Height: 0.0 m

Portable automatic weather stations (PAWS) are operated by other organisations, such as Fire and Emergency Services, and are included here by agreement. Portable stations may be deployed to a location for a short period and their location may be subject to change without notice. Wind observations from these stations are provided from heights of either three (3) or ten (10) metres above ground level (AGL).

Data from the previous 72 hours. | See also: Recent months for locations in New South Wales
Date/Time
EST
Temp
°C
App
Temp
°C
Dew
Point
°C
Rel
Hum
%
Delta-T
°C
Wind Press
QNH
hPa
Press
MSL
hPa
Rain since
9am
mm
Dir  Spd
km/h
Gust
km/h
Spd
kts
Gust
kts
20/02:00pm 0.1 -4.8 -0.5 96 - SW 15 17 8 9 - - 0.0
20/01:50pm 0.3 -5.0 -0.3 96 - SW 17 20 9 11 - - 0.0
20/01:40pm 0.6 -4.6 0.1 96 - SW 17 19 9 10 - - 0.0
20/01:30pm 0.4 -4.8 0.0 97 - SW 17 19 9 10 - - 0.0
20/01:20pm 0.1 -4.4 -0.4 96 - SW 13 15 7 8 - - 0.0
20/01:10pm 0.1 -4.4 -0.4 96 - SW 13 15 7 8 - - 0.0
20/01:00pm 0.3 -4.2 -0.2 96 - SW 13 15 7 8 - - 0.0
20/12:50pm 0.1 -4.8 -0.5 96 - SW 15 17 8 9 - - 0.0
20/12:40pm 0.4 -4.5 -0.2 96 - SW 15 19 8 10 - - 0.0
20/12:30pm 0.6 -4.2 -0.1 95 - SW 15 17 8 9 - - 0.0
20/12:20pm 0.7 -4.1 0.0 95 - SW 15 17 8 9 - - 0.0
20/12:10pm 0.9 -4.3 0.3 96 - SW 17 19 9 10 - - 0.0
20/12:00pm 0.7 -4.5 0.2 96 - SW 17 19 9 10 - - 0.0
20/11:50am 0.4 -4.8 -0.1 96 - SW 17 20 9 11 - - 0.0
20/11:40am 0.5 -5.1 0.1 97 - SW 19 24 10 13 - - 0.0
20/11:30am 0.6 -4.6 0.2 97 - SW 17 19 9 10 - - 0.0
20/11:20am 0.6 -4.2 0.1 96 - SW 15 17 8 9 - - 0.0
20/11:10am 0.6 -4.6 0.1 96 - SW 17 19 9 10 - - 0.0
20/11:00am 0.4 -4.4 -0.1 96 - SW 15 19 8 10 - - 0.0
20/10:50am 0.3 -4.9 -0.2 96 - SW 17 19 9 10 - - 0.0
20/10:40am 0.0 -5.3 -0.5 96 - SW 17 20 9 11 - - 0.0
20/10:30am 0.0 -5.3 -0.6 96 - SW 17 19 9 10 - - 0.0
20/10:20am 0.5 -4.4 -0.2 95 - SW 15 17 8 9 - - 0.0
20/10:10am 0.8 -4.0 -0.1 94 - SW 15 19 8 10 - - 0.0
20/10:00am 0.7 -4.9 -0.3 93 - SW 19 20 10 11 - - 0.0
20/09:50am 0.8 -4.9 -0.4 92 - SW 19 20 10 11 - - 0.0
20/09:40am 0.9 -4.8 -0.4 91 - SW 19 20 10 11 - - 0.0
20/09:30am 0.8 -4.4 0.0 94 - SW 17 19 9 10 - - 0.0
20/09:20am 0.7 -4.9 0.0 95 - SW 19 20 10 11 - - 0.0
20/09:10am 0.7 -4.1 0.1 96 - SW 15 19 8 10 - - 0.0
20/09:00am 0.9 -3.9 0.4 96 - SW 15 17 8 9 - - 0.0
20/08:50am 1.4 -2.9 0.9 96 - SW 13 15 7 8 - - 0.0
20/08:40am 1.7 -2.9 1.3 97 - SW 15 19 8 10 - - 0.0
20/08:30am 1.9 -2.7 1.5 97 - SW 15 17 8 9 - - 0.0
20/08:20am 2.0 -2.6 1.6 97 - SW 15 17 8 9 - - 0.0
20/08:10am 2.0 -2.6 1.6 97 - SW 15 17 8 9 - - 0.0
20/08:00am 2.0 -2.2 1.7 98 - SW 13 15 7 8 - - 0.0
20/07:50am 2.1 -2.1 1.7 97 - SW 13 15 7 8 - - 0.0
20/07:40am 2.1 -2.1 1.7 97 - SW 13 15 7 8 - - 0.0
20/07:30am 2.2 -2.0 1.9 98 - SW 13 17 7 9 - - 0.0
20/07:20am 2.2 -2.3 1.9 98 - SW 15 17 8 9 - - 0.0
20/07:10am 2.3 -2.2 1.9 97 - SW 15 15 8 8 - - 0.0
20/07:00am 2.2 -2.0 1.9 98 - SW 13 15 7 8 - - 0.0
20/06:50am 2.2 -2.0 1.9 98 - SW 13 15 7 8 - - 0.0
20/06:40am 2.3 -1.5 1.9 97 - SW 11 13 6 7 - - 0.0
20/06:30am 2.4 -1.4 2.0 97 - SW 11 13 6 7 - - 0.0
20/06:20am 2.4 -1.7 2.0 97 - SW 13 15 7 8 - - 0.0
20/06:10am 2.4 -1.7 2.0 97 - SW 13 17 7 9 - - 0.0
20/06:00am 2.4 -1.7 2.1 98 - SW 13 15 7 8 - - 0.0
20/05:50am 2.5 -2.0 2.2 98 - SW 15 17 8 9 - - 0.0
20/05:40am 2.5 -2.0 2.2 98 - SW 15 17 8 9 - - 0.0
20/05:30am 2.5 -2.0 2.2 98 - SW 15 17 8 9 - - 0.0
20/05:20am 2.5 -1.6 2.2 98 - SW 13 15 7 8 - - 0.0
20/05:10am 2.4 -2.1 2.1 98 - SW 15 17 8 9 - - 0.0
20/05:00am 2.4 -1.7 2.1 98 - SW 13 15 7 8 - - 0.0
20/04:50am 2.3 -1.8 2.0 98 - SW 13 15 7 8 - - 0.0
20/04:40am 2.2 -2.0 1.9 98 - SW 13 17 7 9 - - 0.0
20/04:30am 2.2 -2.0 1.9 98 - SW 13 17 7 9 - - 0.0
20/04:20am 2.2 -2.0 1.9 98 - SW 13 17 7 9 - - 0.0
20/04:10am 2.2 -2.0 1.9 98 - SW 13 15 7 8 - - 0.0
20/04:00am 2.4 -1.3 2.1 98 - SW 11 13 6 7 - - 0.0
20/03:50am 2.5 -0.8 2.2 98 - SW 9 11 5 6 - - 0.0
20/03:40am 2.5 -0.8 2.2 98 - SW 9 11 5 6 - - 0.0
20/03:30am 2.5 -1.6 2.2 98 - SW 13 15 7 8 - - 0.0
20/03:20am 2.5 -1.2 2.2 98 - SW 11 13 6 7 - - 0.0
20/03:10am 2.5 -1.2 2.1 97 - SW 11 13 6 7 - - 0.0
20/03:00am 2.4 -1.0 2.1 98 - SW 9 11 5 6 - - 0.0
20/02:50am 2.2 -1.2 1.9 98 - SW 9 11 5 6 - - 0.0
20/02:40am 2.1 -1.3 1.7 97 - SW 9 11 5 6 - - 0.0
20/02:30am 2.0 -1.4 1.6 97 - SW 9 13 5 7 - - 0.0
20/02:20am 1.9 -1.9 1.5 97 - SW 11 13 6 7 - - 0.0
20/02:10am 1.8 -2.1 1.4 97 - SW 11 13 6 7 - - 0.0
20/02:00am 1.8 -2.5 1.3 96 - SW 13 15 7 8 - - 0.0
20/01:50am 1.8 -2.4 1.4 97 - SW 13 15 7 8 - - 0.0
20/01:40am 1.9 -2.3 1.4 96 - SW 13 15 7 8 - - 0.0
20/01:30am 1.9 -2.3 1.4 96 - SW 13 15 7 8 - - 0.0
20/01:20am 2.0 -2.6 1.5 96 - SW 15 17 8 9 - - 0.0
20/01:10am 2.2 -2.4 1.7 96 - SW 15 17 8 9 - - 0.0
20/01:00am 2.3 -2.3 1.8 96 - SW 15 20 8 11 - - 0.0
20/12:50am 2.4 -1.8 1.9 96 - SW 13 15 7 8 - - 0.0
20/12:40am 2.6 -1.5 2.0 96 - SW 13 15 7 8 - - 0.0
20/12:30am 2.7 -1.8 2.1 96 - SW 15 20 8 11 - - 0.0
20/12:20am 2.9 -1.2 2.1 94 - SW 13 17 7 9 - - 0.0
20/12:10am 3.1 -1.0 2.3 94 - WSW 13 15 7 8 - - 0.0
20/12:00am 3.2 -0.9 2.2 93 - WSW 13 17 7 9 - - 0.0
 
Date/Time
EST
Temp
°C
App
Temp
°C
Dew
Point
°C
Rel
Hum
%
Delta-T
°C
Wind Press
QNH
hPa
Press
MSL
hPa
Rain since
9am
mm
Dir  Spd
km/h
Gust
km/h
Spd
kts
Gust
kts
19/11:50pm 3.1 -1.4 2.3 94 - SW 15 17 8 9 - - 0.0
19/11:40pm 3.1 -1.4 2.3 94 - SW 15 17 8 9 - - 0.0
19/11:30pm 3.0 -1.5 2.2 94 - SW 15 17 8 9 - - 0.0
19/11:20pm 2.8 -1.7 2.2 96 - SW 15 19 8 10 - - 0.0
19/11:10pm 2.7 -2.2 2.2 96 - SW 17 19 9 10 - - 0.0
19/11:00pm 2.7 -2.2 2.2 96 - SW 17 19 9 10 - - 0.0
19/10:50pm 2.7 -2.2 2.1 96 - SW 17 19 9 10 - - 0.0
19/10:40pm 2.6 -2.7 2.1 96 - SW 19 22 10 12 - - 0.0
19/10:30pm 2.5 -2.4 2.0 96 - SW 17 19 9 10 - - 0.0
19/10:20pm 2.4 -2.5 1.8 96 - SW 17 20 9 11 - - 0.0
19/10:10pm 2.4 -2.9 1.8 96 - SW 19 20 10 11 - - 0.0
19/10:00pm 2.3 -2.6 1.7 96 - SW 17 20 9 11 - - 0.0
19/09:50pm 2.3 -3.0 1.6 95 - SW 19 20 10 11 - - 0.0
19/09:40pm 2.2 -2.8 1.5 95 - SW 17 19 9 10 - - 0.0
19/09:30pm 2.2 -2.8 1.5 95 - SW 17 19 9 10 - - 0.0
19/09:20pm 2.1 -2.9 1.5 96 - SW 17 19 9 10 - - 0.0
19/09:10pm 2.1 -2.5 1.5 96 - SW 15 17 8 9 - - 0.0
19/09:00pm 2.0 -2.6 1.5 96 - SW 15 17 8 9 - - 0.0
19/08:50pm 2.0 -2.6 1.4 96 - SW 15 19 8 10 - - 0.0
19/08:40pm 1.9 -2.7 1.4 96 - SW 15 17 8 9 - - 0.0
19/08:30pm 1.8 -2.8 1.3 96 - SW 15 17 8 9 - - 0.0
19/08:20pm 1.6 -2.7 1.1 96 - SW 13 17 7 9 - - 0.0
19/08:10pm 1.5 -2.8 1.0 96 - SW 13 15 7 8 - - 0.0
19/08:00pm 1.4 -2.9 0.9 96 - SW 13 15 7 8 - - 0.0
19/07:50pm 1.3 -3.0 0.7 96 - SW 13 13 7 7 - - 0.0
19/07:40pm 1.2 -3.2 0.6 96 - SW 13 17 7 9 - - 0.0
19/07:30pm 1.1 -2.9 0.5 96 - SW 11 13 6 7 - - 0.0
19/07:20pm 1.2 -2.8 0.5 95 - SW 11 15 6 8 - - 0.0
19/07:10pm 1.2 -2.8 0.4 94 - SW 11 13 6 7 - - 0.0
19/07:00pm 1.2 -2.4 0.3 94 - SW 9 13 5 7 - - 0.0
19/06:50pm 1.1 -2.5 0.3 94 - SW 9 9 5 5 - - 0.0
19/06:40pm 1.0 -2.7 0.2 94 - SW 9 11 5 6 - - 0.0
19/06:30pm 1.0 -2.3 0.1 94 - SW 7 9 4 5 - - 0.0
19/06:20pm 0.9 -2.4 0.0 94 - SW 7 11 4 6 - - 0.0
19/06:10pm 0.9 -2.4 -0.1 93 - SW 7 9 4 5 - - 0.0
19/06:00pm 0.9 -2.5 -0.3 92 - SW 7 9 4 5 - - 0.0
19/05:50pm 0.9 -2.5 -0.4 91 - SW 7 9 4 5 - - 0.0
19/05:40pm 0.9 -2.3 -0.6 90 - WSW 6 7 3 4 - - 0.0
19/05:30pm 0.9 -2.5 -0.6 90 - SW 7 9 4 5 - - 0.0
19/05:20pm 1.0 -2.4 -0.7 88 - SW 7 9 4 5 - - 0.0
19/05:10pm 1.0 -1.5 -0.8 88 - SW 2 6 1 3 - - 0.0
19/05:00pm 1.0 -2.3 -1.0 86 - SW 6 7 3 4 - - 0.0
19/04:50pm 1.1 -1.8 -1.1 85 - SW 4 9 2 5 - - 0.0
19/04:30pm 1.3 -1.6 -1.4 82 - SW 4 7 2 4 - - 0.0
19/04:20pm 1.3 -1.3 -1.5 81 - SW 2 6 1 3 - - 0.0
19/04:10pm 1.3 -1.6 -1.4 82 - WSW 4 7 2 4 - - 0.0
19/04:00pm 1.3 -2.0 -1.1 84 - SW 6 9 3 5 - - 0.0
19/03:50pm 1.3 -1.6 -1.1 84 - SW 4 7 2 4 - - 0.0
19/03:40pm 1.3 -1.6 -1.3 83 - SW 4 7 2 4 - - 0.0
19/03:30pm 1.2 -1.0 -1.3 83 - CALM 0 6 0 3 - - 0.0
19/03:10pm 1.4 -1.1 -1.3 82 - SW 2 9 1 5 - - 0.0
19/03:00pm 1.4 -0.8 -1.6 80 - CALM 0 4 0 2 - - 0.0
19/02:50pm 1.3 -0.9 -1.7 80 - CALM 0 0 0 0 - - 0.0
19/02:40pm 1.3 -0.9 -1.8 80 - CALM 0 0 0 0 - - 0.0
19/02:30pm 1.4 -0.8 -1.8 79 - CALM 0 0 0 0 - - 0.0
19/02:20pm 1.5 -0.7 -1.7 79 - CALM 0 0 0 0 - - 0.0
19/02:10pm 1.7 -0.9 -1.7 78 - SW 2 7 1 4 - - 0.0
19/02:00pm 1.9 -0.3 -1.3 79 - CALM 0 2 0 1 - - 0.0
19/01:50pm 2.1 -0.5 -1.8 75 - SW 2 6 1 3 - - 0.0
19/01:40pm 2.2 -1.3 -1.7 75 - SW 7 11 4 6 - - 0.0
19/01:30pm 2.3 -1.6 -1.6 75 - SW 9 13 5 7 - - 0.0
19/01:20pm 2.3 -2.0 -1.8 74 - SW 11 13 6 7 - - 0.0
19/01:10pm 2.7 -0.7 -2.0 71 - SW 6 13 3 7 - - 0.0
19/01:00pm 3.1 -0.8 -1.6 71 - SW 9 11 5 6 - - 0.0
19/12:50pm 2.5 -2.6 -2.3 70 - SW 15 17 8 9 - - 0.0
19/12:40pm 2.3 -2.9 -2.6 70 - SW 15 17 8 9 - - 0.0
19/12:30pm 2.1 -3.5 -2.5 71 - SW 17 20 9 11 - - 0.0
19/12:20pm 2.0 -3.9 -2.6 71 - SW 19 22 10 12 - - 0.0
19/12:10pm 1.9 -4.2 -2.7 71 - SW 20 22 11 12 - - 0.0
19/12:00pm 1.9 -4.1 -2.8 71 - SW 19 20 10 11 - - 0.0
19/11:50am 2.3 -3.2 -2.3 71 - SW 17 17 9 9 - - 0.0
19/11:40am 2.2 -3.0 -2.4 71 - SW 15 19 8 10 - - 0.0
19/11:30am 2.4 -3.1 -2.4 70 - SW 17 17 9 9 - - 0.0
19/11:20am 2.1 -3.5 -2.6 71 - SW 17 19 9 10 - - 0.0
19/11:10am 2.2 -2.9 -2.3 72 - SW 15 19 8 10 - - 0.0
19/11:00am 2.0 -2.8 -2.5 72 - SW 13 15 7 8 - - 0.0
19/10:50am 1.9 -2.5 -2.5 72 - SW 11 15 6 8 - - 0.0
19/10:40am 1.8 -2.6 -2.6 72 - SW 11 11 6 6 - - 0.0
19/10:30am 1.6 -2.8 -2.7 73 - SW 11 13 6 7 - - 0.0
19/10:20am 0.9 -4.0 -3.2 74 - SW 13 13 7 7 - - 0.0
19/10:10am 0.5 -4.0 -3.5 74 - SW 11 15 6 8 - - 0.0
19/10:00am 0.3 -4.6 -3.6 75 - SW 13 17 7 9 - - 0.0
19/09:50am 0.1 -5.2 -3.4 77 - SW 15 17 8 9 - - 0.0
19/09:40am 0.1 -5.2 -3.4 77 - SW 15 17 8 9 - - 0.0
19/09:30am 0.4 -5.2 -3.3 76 - SW 17 20 9 11 - - 0.0
19/09:20am 0.9 -4.4 -3.3 73 - SW 15 19 8 10 - - 0.0
19/09:10am 0.4 -5.3 -3.4 76 - SW 17 22 9 12 - - 0.0
19/09:00am 0.2 -6.0 -3.2 78 - SW 20 22 11 12 - - 0.0
19/08:50am -0.1 -6.7 -3.3 79 - SW 22 26 12 14 - - 0.0
19/08:40am -0.4 -6.6 -3.3 81 - SW 20 22 11 12 - - 0.0
19/08:30am -0.5 -6.5 -3.3 81 - SW 19 20 10 11 - - 0.0
19/08:20am -0.5 -5.8 -3.2 82 - SW 15 17 8 9 - - 0.0
19/08:10am -0.5 -5.8 -3.5 80 - SW 15 15 8 8 - - 0.0
19/08:00am -0.6 -5.5 -3.5 81 - SW 13 15 7 8 - - 0.0
19/07:50am -0.6 -5.1 -3.4 81 - SW 11 13 6 7 - - 0.0
19/07:40am -0.7 -4.5 -3.4 82 - SW 7 11 4 6 - - 0.0
19/07:30am -0.8 -4.4 -3.3 83 - SW 6 9 3 5 - - 0.0
19/07:20am -0.9 -4.6 -3.1 85 - SW 7 7 4 4 - - 0.0
19/07:10am -0.8 -4.9 -3.2 84 - SW 9 11 5 6 - - 0.0
19/07:00am -0.8 -4.9 -3.1 84 - SW 9 11 5 6 - - 0.0
19/06:50am -0.8 -4.3 -3.2 84 - SW 6 9 3 5 - - 0.0
19/06:40am -0.7 -4.5 -3.4 82 - SW 7 9 4 5 - - 0.0
19/06:30am -0.7 -5.2 -3.5 81 - SW 11 13 6 7 - - 0.0
19/06:20am -0.8 -5.7 -3.5 82 - SW 13 13 7 7 - - 0.0
19/06:10am -0.7 -5.6 -3.5 81 - SW 13 13 7 7 - - 0.0
19/06:00am -0.8 -5.7 -3.6 81 - SW 13 15 7 8 - - 0.0
19/05:50am -0.8 -5.4 -3.7 81 - SW 11 13 6 7 - - 0.0
19/05:40am -0.8 -5.4 -3.8 80 - SW 11 13 6 7 - - 0.0
19/05:30am -0.7 -5.7 -3.9 79 - SW 13 13 7 7 - - 0.0
19/05:20am -0.7 -6.1 -4.2 77 - SW 15 17 8 9 - - 0.0
19/05:10am -0.9 -5.9 -4.1 79 - SW 13 17 7 9 - - 0.0
19/05:00am -0.8 -5.8 -4.1 78 - SW 13 15 7 8 - - 0.0
19/04:50am -0.7 -5.7 -4.2 77 - SW 13 15 7 8 - - 0.0
19/04:40am -0.7 -6.4 -4.1 78 - SSW 17 20 9 11 - - 0.0
19/04:30am -0.6 -6.3 -4.0 78 - SSW 17 20 9 11 - - 0.0
19/04:20am -0.6 -5.9 -3.7 79 - SW 15 17 8 9 - - 0.0
19/04:10am -0.6 -5.9 -3.6 80 - SW 15 17 8 9 - - 0.0
19/04:00am -0.6 -5.9 -3.5 81 - SSW 15 17 8 9 - - 0.0
19/03:50am -0.6 -5.9 -3.4 81 - SSW 15 17 8 9 - - 0.0
19/03:40am -0.7 -6.0 -3.3 82 - SW 15 19 8 10 - - 0.0
19/03:30am -0.6 -6.2 -3.3 82 - SW 17 19 9 10 - - 0.0
19/03:20am -0.6 -5.9 -3.3 82 - SW 15 17 8 9 - - 0.0
19/03:10am -0.6 -5.9 -3.4 81 - SSW 15 15 8 8 - - 0.0
19/03:00am -0.5 -5.8 -3.3 81 - SW 15 19 8 10 - - 0.0
19/02:50am -0.5 -5.4 -3.2 82 - SW 13 15 7 8 - - 0.0
19/02:40am -0.5 -5.4 -3.2 82 - SW 13 15 7 8 - - 0.0
19/02:30am -0.5 -5.4 -3.2 82 - SW 13 17 7 9 - - 0.0
19/02:20am -0.4 -5.3 -3.4 80 - SW 13 17 7 9 - - 0.0
19/02:10am -0.5 -5.4 -3.4 81 - SW 13 15 7 8 - - 0.0
19/02:00am -0.4 -5.3 -3.4 80 - SW 13 15 7 8 - - 0.0
19/01:50am -0.3 -4.8 -3.3 80 - SW 11 13 6 7 - - 0.0
19/01:40am -0.3 -5.2 -3.3 80 - SSW 13 15 7 8 - - 0.0
19/01:30am -0.3 -4.8 -3.2 81 - SSW 11 13 6 7 - - 0.0
19/01:20am -0.2 -4.3 -3.2 80 - SW 9 11 5 6 - - 0.0
19/01:10am -0.1 -4.6 -3.2 80 - SW 11 13 6 7 - - 0.0
19/01:00am -0.1 -4.9 -2.9 81 - SSW 13 15 7 8 - - 0.0
19/12:50am 0.0 -4.8 -2.9 81 - SW 13 15 7 8 - - 0.0
19/12:40am 0.1 -5.1 -2.7 81 - SW 15 15 8 8 - - 0.0
19/12:30am 0.2 -4.6 -2.6 81 - SW 13 15 7 8 - - 0.0
19/12:20am 0.2 -4.6 -2.5 82 - SW 13 15 7 8 - - 0.0
19/12:10am 0.2 -4.2 -2.2 84 - SW 11 13 6 7 - - 0.0
19/12:00am 0.2 -4.9 -2.1 84 - SW 15 17 8 9 - - 0.0
 
Date/Time
EST
Temp
°C
App
Temp
°C
Dew
Point
°C
Rel
Hum
%
Delta-T
°C
Wind Press
QNH
hPa
Press
MSL
hPa
Rain since
9am
mm
Dir  Spd
km/h
Gust
km/h
Spd
kts
Gust
kts
18/11:50pm 0.2 -4.6 -2.4 83 - SW 13 17 7 9 - - 0.0
18/11:40pm 0.0 -4.8 -2.7 82 - SW 13 15 7 8 - - 0.0
18/11:30pm 0.1 -4.7 -2.7 81 - SW 13 15 7 8 - - 0.0
18/11:20pm 0.1 -4.7 -2.7 81 - SW 13 15 7 8 - - 0.0
18/11:10pm 0.3 -4.5 -2.8 80 - SW 13 15 7 8 - - 0.0
18/11:00pm 0.4 -4.5 -3.1 77 - SW 13 15 7 8 - - 0.0
18/10:50pm 0.4 -4.5 -3.1 77 - SW 13 15 7 8 - - 0.0
18/10:40pm 0.5 -4.8 -3.3 76 - SW 15 15 8 8 - - 0.0
18/10:30pm 0.5 -4.8 -3.3 76 - SSW 15 17 8 9 - - 0.0
18/10:20pm 0.5 -5.1 -3.2 76 - SSW 17 17 9 9 - - 0.0
18/10:10pm 0.5 -4.7 -3.1 77 - SSW 15 19 8 10 - - 0.0
18/10:00pm 0.5 -4.7 -3.1 77 - SSW 15 19 8 10 - - 0.0
18/09:50pm 0.4 -4.9 -3.2 77 - SSW 15 17 8 9 - - 0.0
18/09:40pm 0.3 -4.6 -3.0 78 - SSW 13 15 7 8 - - 0.0
18/09:30pm 0.3 -4.6 -3.1 78 - SSW 13 15 7 8 - - 0.0
18/09:20pm 0.3 -4.6 -3.0 78 - SSW 13 17 7 9 - - 0.0
18/09:10pm 0.2 -4.6 -2.8 80 - SSW 13 17 7 9 - - 0.0
18/09:00pm 0.2 -4.6 -2.9 80 - SSW 13 17 7 9 - - 0.0
18/08:50pm 0.1 -4.7 -2.8 81 - SSW 13 17 7 9 - - 0.0
18/08:40pm 0.0 -4.8 -2.4 84 - SW 13 15 7 8 - - 0.0
18/08:30pm -0.2 -4.6 -2.2 86 - SW 11 13 6 7 - - 0.0
18/08:20pm -0.2 -4.6 -2.1 87 - SW 11 13 6 7 - - 0.0
18/08:10pm -0.1 -4.5 -2.1 86 - SW 11 13 6 7 - - 0.0
18/08:00pm 0.0 -4.4 -2.2 85 - SW 11 13 6 7 - - 0.0
18/07:50pm 0.1 -4.3 -2.4 83 - SW 11 13 6 7 - - 0.0
18/07:40pm 0.0 -4.4 -2.2 85 - SW 11 11 6 6 - - 0.0
18/07:30pm 0.1 -4.3 -2.1 85 - SW 11 13 6 7 - - 0.0
18/07:20pm 0.2 -4.2 -2.1 84 - SW 11 13 6 7 - - 0.0
18/07:10pm 0.4 -4.0 -2.2 83 - SW 11 13 6 7 - - 0.0
18/07:00pm 0.3 -4.1 -2.2 83 - SW 11 13 6 7 - - 0.0
18/06:50pm 0.3 -3.3 -1.8 86 - SW 7 9 4 5 - - 0.0
18/06:40pm 0.5 -2.9 -2.0 83 - SW 6 9 3 5 - - 0.0
18/06:30pm 0.6 -2.8 -2.3 81 - SW 6 9 3 5 - - 0.0
18/06:20pm 0.7 -3.7 -2.2 81 - SW 11 11 6 6 - - 0.0
18/06:10pm 0.7 -3.2 -1.8 83 - SW 9 11 5 6 - - 0.0
18/06:00pm 0.7 -2.3 -1.8 83 - SW 4 9 2 5 - - 0.0
18/05:50pm 0.8 -2.5 -1.6 84 - SW 6 9 3 5 - - 0.0
18/05:40pm 0.9 -3.0 -1.8 82 - SW 9 11 5 6 - - 0.0
18/05:30pm 0.9 -3.0 -1.8 82 - SW 9 11 5 6 - - 0.0
18/05:20pm 1.1 -3.2 -1.9 80 - SW 11 13 6 7 - - 0.0
18/05:10pm 1.1 -3.2 -1.8 81 - SW 11 13 6 7 - - 0.0
18/05:00pm 1.3 -2.6 -1.6 81 - SW 9 11 5 6 - - 0.0
18/04:50pm 1.5 -2.8 -1.6 80 - SW 11 11 6 6 - - 0.0
18/04:40pm 1.8 -2.5 -1.4 79 - SW 11 13 6 7 - - 0.0
18/04:30pm 2.3 -1.9 -1.0 79 - SW 11 15 6 8 - - 0.0
18/04:20pm 2.9 -0.9 -0.8 76 - SW 9 11 5 6 - - 0.0
18/04:10pm 3.2 -0.2 -0.7 75 - SW 7 11 4 6 - - 0.0
18/04:00pm 3.4 0.2 -0.6 75 - SW 6 11 3 6 - - 0.0
18/03:50pm 3.8 1.0 -0.6 73 - SW 4 9 2 5 - - 0.0
18/03:40pm 4.2 2.2 -0.4 72 - CALM 0 4 0 2 - - 0.0
18/03:30pm 4.4 2.4 -0.2 72 - CALM 0 0 0 0 - - 0.0
18/03:20pm 4.6 2.6 -0.2 71 - CALM 0 0 0 0 - - 0.0
18/03:10pm 4.7 2.7 -0.1 71 - CALM 0 4 0 2 - - 0.0
18/03:00pm 4.8 2.4 -0.2 70 - SSW 2 6 1 3 - - 0.0
18/02:50pm 5.2 2.8 0.0 69 - SW 2 4 1 2 - - 0.0
18/02:40pm 5.1 3.1 0.2 70 - CALM 0 2 0 1 - - 0.0
18/02:30pm 4.9 2.9 0.1 71 - CALM 0 2 0 1 - - 0.0
18/02:20pm 5.5 3.5 0.0 68 - CALM 0 2 0 1 - - 0.0
18/02:10pm 5.1 3.1 -0.1 69 - CALM 0 2 0 1 - - 0.0
18/02:00pm 4.6 2.6 -0.2 71 - CALM 0 0 0 0 - - 0.0
18/01:50pm 4.6 2.7 0.4 74 - CALM 0 4 0 2 - - 0.0
18/01:40pm 4.9 2.9 0.1 71 - CALM 0 4 0 2 - - 0.0
18/01:30pm 5.1 3.2 0.6 73 - CALM 0 0 0 0 - - 0.0
18/01:20pm 5.1 3.2 0.5 72 - CALM 0 4 0 2 - - 0.0
18/01:10pm 5.4 3.1 0.6 71 - SW 2 6 1 3 - - 0.0
18/01:00pm 5.5 3.6 0.8 72 - CALM 0 0 0 0 - - 0.0
18/12:50pm 5.5 3.5 0.2 69 - CALM 0 0 0 0 - - 0.0
18/12:40pm 5.9 4.0 0.5 68 - CALM 0 0 0 0 - - 0.0
18/12:30pm 5.7 3.8 0.3 68 - CALM 0 0 0 0 - - 0.0
18/12:20pm 5.3 3.4 0.4 70 - CALM 0 2 0 1 - - 0.0
18/12:10pm 4.9 2.2 0.4 72 - SW 4 7 2 4 - - 0.0
18/12:00pm 4.7 2.4 0.4 74 - SW 2 4 1 2 - - 0.0
18/11:50am 4.6 2.7 0.4 74 - CALM 0 2 0 1 - - 0.0
18/11:40am 4.6 2.3 0.7 76 - SW 2 9 1 5 - - 0.0
18/11:30am 4.5 2.2 0.7 76 - SW 2 7 1 4 - - 0.0
18/11:20am 4.3 2.1 1.0 79 - SW 2 6 1 3 - - 0.0
18/11:10am 4.2 1.0 0.5 77 - SW 7 7 4 4 - - 0.0
18/11:00am 4.4 1.4 1.0 78 - SW 6 7 3 4 - - 0.0
18/10:50am 4.6 2.1 1.4 80 - SW 4 7 2 4 - - 0.0
18/10:40am 4.4 2.2 1.0 78 - SW 2 6 1 3 - - 0.0
18/10:30am 3.9 2.0 0.7 80 - CALM 0 4 0 2 - - 0.0
18/10:20am 3.3 1.4 0.5 82 - CALM 0 0 0 0 - - 0.0
18/10:10am 3.2 0.2 0.6 83 - SW 6 9 3 5 - - 0.0
18/10:00am 3.1 -0.2 0.4 82 - SW 7 11 4 6 - - 0.0
18/09:50am 2.8 0.5 0.3 84 - SW 2 7 1 4 - - 0.0
18/09:40am 2.9 0.3 0.7 85 - SW 4 11 2 6 - - 0.0
18/09:30am 3.2 1.0 1.0 85 - SW 2 6 1 3 - - 0.0
18/09:20am 3.3 1.1 1.2 86 - SW 2 7 1 4 - - 0.0
18/09:10am 3.2 1.4 1.1 86 - CALM 0 4 0 2 - - 0.0
18/09:00am 3.3 1.1 0.9 84 - SW 2 6 1 3 - - 0.0
18/08:50am 3.5 1.7 1.4 86 - CALM 0 0 0 0 - - 0.0
18/08:40am 3.2 1.4 1.2 87 - CALM 0 2 0 1 - - 0.0
18/08:30am 2.8 0.6 1.0 88 - SW 2 6 1 3 - - 0.0
18/08:20am 2.5 0.2 0.7 88 - SW 2 7 1 4 - - 0.0
18/08:10am 2.2 -0.9 0.4 88 - SW 6 7 3 4 - - 0.0
18/08:00am 2.2 -1.1 0.4 88 - SW 7 7 4 4 - - 0.0
18/07:50am 2.2 -1.1 0.3 87 - SW 7 7 4 4 - - 0.0
18/07:40am 2.1 -1.2 0.2 87 - SW 7 7 4 4 - - 0.0
18/07:20am 2.2 -1.1 0.0 85 - SW 7 9 4 5 - - 0.0
18/07:10am 2.2 -1.1 0.1 86 - SW 7 9 4 5 - - 0.0
18/07:00am 2.3 -0.8 0.1 85 - SW 6 7 3 4 - - 0.0
18/06:50am 2.2 -0.1 0.2 87 - SW 2 7 1 4 - - 0.0
18/06:40am 2.3 0.3 0.2 86 - CALM 0 0 0 0 - - 0.0
18/06:30am 2.4 0.1 0.2 85 - SW 2 7 1 4 - - 0.0
18/06:20am 2.4 0.4 0.1 85 - CALM 0 0 0 0 - - 0.0
18/06:10am 2.5 0.1 0.0 83 - SW 2 7 1 4 - - 0.0
18/06:00am 2.5 -0.6 -0.1 83 - SW 6 7 3 4 - - 0.0
18/05:50am 2.5 0.1 -0.3 82 - SW 2 7 1 4 - - 0.0
18/05:30am 2.4 -1.0 -0.4 82 - SSW 7 9 4 5 - - 0.0
18/05:20am 2.5 -1.3 -0.5 80 - SSW 9 11 5 6 - - 0.0
18/05:10am 2.3 -1.5 -0.7 80 - SSW 9 11 5 6 - - 0.0
18/05:00am 2.3 -1.9 -0.7 80 - SSW 11 11 6 6 - - 0.0
18/04:50am 2.2 -1.6 -0.8 80 - SSW 9 11 5 6 - - 0.0
18/04:40am 2.1 -1.7 -0.9 80 - SSW 9 11 5 6 - - 0.0
18/04:30am 1.9 -1.9 -0.7 83 - SSW 9 11 5 6 - - 0.0
18/04:20am 1.9 -2.3 -0.7 83 - SSW 11 11 6 6 - - 0.0
18/04:10am 1.9 -2.3 -0.7 83 - SSW 11 13 6 7 - - 0.0
18/04:00am 1.9 -1.9 -0.6 83 - SW 9 11 5 6 - - 0.0
18/03:50am 2.0 -2.2 -0.6 83 - SW 11 13 6 7 - - 0.0
18/03:40am 2.2 -1.9 -0.5 82 - SW 11 13 6 7 - - 0.0
18/03:30am 2.3 -1.5 -0.6 81 - SW 9 11 5 6 - - 0.0
18/03:20am 2.3 -1.5 -0.6 81 - SSW 9 9 5 5 - - 0.0
18/03:10am 2.4 -1.0 -0.8 79 - SSW 7 9 4 5 - - 0.0
18/03:00am 2.4 -1.0 -0.8 79 - SSW 7 9 4 5 - - 0.0
18/02:50am 2.5 -1.3 -0.8 79 - SSW 9 9 5 5 - - 0.0
18/02:40am 2.5 -1.3 -0.8 79 - SSW 9 11 5 6 - - 0.0
18/02:30am 2.5 0.0 -0.8 79 - SW 2 7 1 4 - - 0.0
18/02:20am 2.2 0.1 -0.9 80 - CALM 0 0 0 0 - - 0.0
18/02:10am 2.1 0.1 -0.4 83 - CALM 0 0 0 0 - - 0.0
18/02:00am 2.3 0.2 -0.8 80 - CALM 0 0 0 0 - - 0.0
18/01:50am 2.5 0.4 -1.0 78 - CALM 0 4 0 2 - - 0.0
18/01:40am 2.5 0.0 -1.0 78 - SW 2 6 1 3 - - 0.0
18/01:30am 2.3 0.2 -0.9 79 - CALM 0 0 0 0 - - 0.0
18/01:20am 2.3 0.2 -1.0 79 - CALM 0 0 0 0 - - 0.0
18/01:10am 2.4 0.3 -1.0 78 - CALM 0 0 0 0 - - 0.0
18/01:00am 2.5 0.4 -1.0 78 - CALM 0 0 0 0 - - 0.0
18/12:50am 2.5 0.4 -1.0 78 - CALM 0 0 0 0 - - 0.0
18/12:40am 2.5 0.4 -1.0 78 - CALM 0 0 0 0 - - 0.0
18/12:30am 2.7 0.6 -0.9 77 - CALM 0 0 0 0 - - 0.0
18/12:20am 2.7 0.6 -0.9 77 - CALM 0 0 0 0 - - 0.0
18/12:10am 2.7 0.6 -0.7 78 - CALM 0 0 0 0 - - 0.0
18/12:00am 2.6 0.5 -0.6 79 - CALM 0 0 0 0 - - 0.0
 
Date/Time
EST
Temp
°C
App
Temp
°C
Dew
Point
°C
Rel
Hum
%
Delta-T
°C
Wind Press
QNH
hPa
Press
MSL
hPa
Rain since
9am
mm
Dir  Spd
km/h
Gust
km/h
Spd
kts
Gust
kts
17/11:50pm 2.6 0.5 -0.5 80 - CALM 0 0 0 0 - - 0.0
17/11:40pm 2.7 0.6 -0.5 79 - CALM 0 0 0 0 - - 0.0
17/11:30pm 2.6 0.6 -0.2 82 - CALM 0 0 0 0 - - 0.0
17/11:20pm 2.6 0.6 0.2 84 - CALM 0 6 0 3 - - 0.0
17/11:10pm 2.6 0.6 0.2 84 - CALM 0 0 0 0 - - 0.0
17/11:00pm 2.6 0.7 0.3 85 - CALM 0 4 0 2 - - 0.0
17/10:50pm 2.7 0.7 0.2 83 - CALM 0 4 0 2 - - 0.0
17/10:40pm 2.7 0.8 0.3 84 - CALM 0 2 0 1 - - 0.0
17/10:30pm 2.4 0.5 0.3 86 - CALM 0 0 0 0 - - 0.0
17/10:20pm 2.6 0.6 0.2 84 - CALM 0 0 0 0 - - 0.0
17/10:10pm 2.8 0.8 0.1 82 - CALM 0 0 0 0 - - 0.0
17/10:00pm 2.9 0.9 0.0 81 - CALM 0 2 0 1 - - 0.0
17/09:50pm 2.9 0.9 0.1 82 - CALM 0 0 0 0 - - 0.0
17/09:40pm 2.9 0.9 0.1 82 - CALM 0 0 0 0 - - 0.0
17/09:30pm 3.0 1.0 0.1 81 - CALM 0 0 0 0 - - 0.0
17/09:20pm 3.1 1.1 0.0 80 - CALM 0 0 0 0 - - 0.0
17/09:10pm 3.0 1.0 0.2 82 - CALM 0 0 0 0 - - 0.0
17/09:00pm 3.2 1.3 0.7 84 - CALM 0 0 0 0 - - 0.0
17/08:50pm 3.2 1.4 1.5 89 - CALM 0 0 0 0 - - 0.0
17/08:40pm 3.0 1.3 1.6 90 - CALM 0 0 0 0 - - 0.0
17/08:30pm 3.1 1.3 1.5 89 - CALM 0 0 0 0 - - 0.0
17/08:20pm 3.1 1.3 1.4 89 - CALM 0 0 0 0 - - 0.0
17/08:10pm 3.0 1.2 1.5 90 - CALM 0 0 0 0 - - 0.0
17/08:00pm 3.0 1.2 1.5 90 - CALM 0 0 0 0 - - 0.0
17/07:50pm 3.0 1.2 1.3 89 - CALM 0 0 0 0 - - 0.0
17/07:40pm 3.2 1.4 1.2 87 - CALM 0 0 0 0 - - 0.0
17/07:30pm 3.5 1.7 1.1 84 - CALM 0 0 0 0 - - 0.0
17/07:20pm 3.7 1.8 0.8 81 - CALM 0 0 0 0 - - 0.0
17/07:10pm 3.7 1.8 0.7 81 - CALM 0 0 0 0 - - 0.0
17/07:00pm 3.8 1.9 0.7 80 - CALM 0 0 0 0 - - 0.0
17/06:50pm 4.0 2.2 0.9 80 - CALM 0 0 0 0 - - 0.0
17/06:40pm 4.3 2.4 0.7 77 - CALM 0 0 0 0 - - 0.0
17/06:30pm 4.3 2.4 0.8 78 - CALM 0 0 0 0 - - 0.0
17/06:20pm 4.4 2.5 0.7 77 - CALM 0 0 0 0 - - 0.0
17/06:10pm 4.5 2.6 0.8 77 - CALM 0 0 0 0 - - 0.0
17/06:00pm 4.6 2.8 0.9 77 - CALM 0 0 0 0 - - 0.0
17/05:50pm 4.8 2.9 0.7 75 - CALM 0 0 0 0 - - 0.0
17/05:40pm 4.9 3.0 0.8 75 - CALM 0 0 0 0 - - 0.0
17/05:30pm 5.1 2.8 0.6 73 - S 2 7 1 4 - - 0.0
17/05:20pm 5.1 2.8 0.4 71 - S 2 7 1 4 - - 0.0
17/05:10pm 5.2 3.4 1.1 75 - CALM 0 4 0 2 - - 0.0
17/05:00pm 5.3 3.6 1.6 77 - CALM 0 6 0 3 - - 0.0
17/04:50pm 5.4 3.7 1.7 77 - CALM 0 0 0 0 - - 0.0
17/04:40pm 5.5 3.8 1.8 77 - CALM 0 0 0 0 - - 0.0
17/04:30pm 5.3 3.7 2.2 80 - CALM 0 2 0 1 - - 0.0
17/04:20pm 5.3 3.7 2.6 83 - CALM 0 0 0 0 - - 0.0
17/04:10pm 5.3 3.7 2.4 81 - CALM 0 0 0 0 - - 0.0
17/04:00pm 5.4 3.8 2.3 80 - CALM 0 0 0 0 - - 0.0
17/03:50pm 5.5 3.9 2.3 80 - CALM 0 0 0 0 - - 0.0
17/03:40pm 5.6 3.9 1.9 77 - CALM 0 2 0 1 - - 0.0
17/03:30pm 5.6 3.5 2.0 77 - S 2 7 1 4 - - 0.0
17/03:20pm 5.6 4.0 2.5 80 - CALM 0 0 0 0 - - 0.0
17/03:10pm 5.7 3.7 2.4 79 - SSW 2 6 1 3 - - 0.0
17/03:00pm 6.0 4.1 2.8 80 - S 2 4 1 2 - - 0.0
17/02:50pm 6.3 4.5 1.5 71 - CALM 0 2 0 1 - - 0.0
17/02:40pm 6.4 4.6 1.5 71 - CALM 0 0 0 0 - - 0.0
17/02:30pm 6.5 4.8 1.6 71 - CALM 0 0 0 0 - - 0.0
17/02:20pm 6.7 5.0 1.7 70 - CALM 0 0 0 0 - - 0.0

Other formats

Comma delimited format used in spreadsheet applications
http://www.bom.gov.au/fwo/IDN60801/IDN60801.99946.axf

JavaScript Object Notation format (JSON) in row-major order
http://www.bom.gov.au/fwo/IDN60801/IDN60801.99946.json

Data quality

Most of these data are generated automatically and are frequently updated. Quality checks on data are not normally performed. It is possible for incorrect values to appear. Refer to information at About Latest Weather Observations and please check the disclaimer before using these data.